createdAt,value
2022-07-31T00:04:24.097Z,57.78
2022-07-31T00:09:52.449Z,57.29
2022-07-31T00:14:48.594Z,57.14
2022-07-31T00:19:50.406Z,56.79
2022-07-31T00:24:52.201Z,57.06
2022-07-31T00:29:54.016Z,57.40
2022-07-31T00:34:55.843Z,57.38
2022-07-31T00:39:58.753Z,57.49
2022-07-31T00:45:01.124Z,57.67
2022-07-31T00:50:04.922Z,57.93
2022-07-31T00:55:07.695Z,57.99
2022-07-31T01:00:10.465Z,58.06
2022-07-31T01:05:12.320Z,57.78
2022-07-31T01:10:36.558Z,57.33
2022-07-31T01:15:39.922Z,56.95
2022-07-31T01:20:45.622Z,57.20
2022-07-31T01:25:50.481Z,56.85
2022-07-31T01:31:28.346Z,56.81
2022-07-31T01:36:36.923Z,56.85
2022-07-31T01:41:46.341Z,56.87
2022-07-31T01:46:49.934Z,56.76
2022-07-31T01:51:53.258Z,56.84
2022-07-31T01:56:59.642Z,56.80
2022-07-31T02:02:04.850Z,56.84
2022-07-31T02:07:08.443Z,57.41
2022-07-31T02:12:12.668Z,58.04
2022-07-31T02:17:22.261Z,58.07
2022-07-31T02:23:01.598Z,57.91
2022-07-31T02:28:08.137Z,57.86
2022-07-31T02:33:14.008Z,57.63
2022-07-31T02:38:23.373Z,58.08
2022-07-31T02:43:28.722Z,57.91
2022-07-31T02:48:32.798Z,58.42
2022-07-31T02:53:39.427Z,58.41
2022-07-31T02:58:44.326Z,58.20
2022-07-31T03:03:59.322Z,57.90
2022-07-31T03:09:03.411Z,57.71
2022-07-31T03:14:08.611Z,57.50
2022-07-31T03:19:11.410Z,57.21
2022-07-31T03:24:13.614Z,57.31
2022-07-31T03:29:41.198Z,57.18
2022-07-31T03:34:37.871Z,57.52
2022-07-31T03:39:40.207Z,57.75
2022-07-31T03:44:46.560Z,57.81
2022-07-31T03:49:49.307Z,57.36
2022-07-31T03:54:51.606Z,57.28
2022-07-31T03:59:57.775Z,57.41
2022-07-31T04:05:00.285Z,57.36
2022-07-31T04:10:02.962Z,57.53
2022-07-31T04:15:06.311Z,57.55
2022-07-31T04:20:09.491Z,57.60
2022-07-31T04:25:11.350Z,57.35
2022-07-31T04:30:31.969Z,57.08
2022-07-31T04:35:35.323Z,56.89
2022-07-31T04:40:37.745Z,56.50
2022-07-31T04:45:39.607Z,56.51
2022-07-31T04:50:42.522Z,56.29
2022-07-31T04:56:04.937Z,55.99
2022-07-31T05:01:07.052Z,55.92
2022-07-31T05:06:12.821Z,55.97
2022-07-31T05:11:23.999Z,55.69
2022-07-31T05:16:27.509Z,55.62
2022-07-31T05:21:33.112Z,55.41
2022-07-31T05:27:00.400Z,55.10
2022-07-31T05:32:02.748Z,54.83
2022-07-31T05:37:07.462Z,54.59
2022-07-31T05:42:12.200Z,54.48
2022-07-31T05:47:40.148Z,54.07
2022-07-31T05:52:42.838Z,53.79
2022-07-31T05:58:20.468Z,53.22
2022-07-31T06:03:23.861Z,52.81
2022-07-31T06:08:34.895Z,52.56
2022-07-31T06:13:36.982Z,52.07
2022-07-31T06:24:07.741Z,50.96
2022-07-31T06:29:19.285Z,49.98
2022-07-31T06:34:42.136Z,49.91
2022-07-31T06:39:56.064Z,49.67
2022-07-31T06:45:12.052Z,49.42
2022-07-31T06:50:45.928Z,48.07
2022-07-31T06:56:11.234Z,47.66
2022-07-31T07:01:16.908Z,47.87
2022-07-31T07:06:21.046Z,46.66
2022-07-31T07:11:24.248Z,45.80
2022-07-31T07:16:26.800Z,45.75
2022-07-31T07:21:29.121Z,45.13
2022-07-31T07:26:31.450Z,44.75
2022-07-31T07:31:34.960Z,44.57
2022-07-31T07:36:37.034Z,44.01
2022-07-31T07:41:44.716Z,43.47
2022-07-31T07:46:47.184Z,42.66
2022-07-31T07:51:58.801Z,42.67
2022-07-31T07:57:09.734Z,42.26
2022-07-31T08:02:35.279Z,42.10
2022-07-31T08:07:42.043Z,41.95
2022-07-31T08:13:07.995Z,41.96
2022-07-31T08:18:36.293Z,41.52
2022-07-31T08:23:38.451Z,40.66
2022-07-31T08:28:50.394Z,40.29
2022-07-31T08:33:55.165Z,40.12
2022-07-31T08:38:57.543Z,38.85
2022-07-31T08:44:17.824Z,38.90
2022-07-31T08:49:31.567Z,38.24
2022-07-31T08:54:35.763Z,38.56
2022-07-31T08:59:41.928Z,38.01
2022-07-31T09:04:44.052Z,37.81
2022-07-31T09:09:51.866Z,36.62
2022-07-31T09:14:55.382Z,37.15
2022-07-31T09:19:57.399Z,36.40
2022-07-31T09:25:12.929Z,36.21
2022-07-31T09:30:16.220Z,35.79
2022-07-31T09:35:47.225Z,35.66
2022-07-31T09:40:55.483Z,35.40
2022-07-31T09:46:06.604Z,35.47
2022-07-31T09:51:08.814Z,33.84
2022-07-31T09:56:12.738Z,34.26
2022-07-31T10:01:15.125Z,33.63
2022-07-31T10:06:20.455Z,33.09
2022-07-31T10:11:24.911Z,33.05
2022-07-31T10:16:44.192Z,33.92
2022-07-31T10:22:10.049Z,34.09
2022-07-31T10:27:14.525Z,34.14
2022-07-31T10:32:17.563Z,33.96
2022-07-31T10:38:01.502Z,33.81
2022-07-31T10:43:29.476Z,33.87
2022-07-31T10:48:53.786Z,33.44
2022-07-31T10:54:16.052Z,33.72
2022-07-31T10:59:45.615Z,33.55
2022-07-31T11:04:50.623Z,33.31
2022-07-31T11:10:21.952Z,33.25
2022-07-31T11:15:34.041Z,33.35
2022-07-31T11:21:13.683Z,33.38
2022-07-31T11:26:32.910Z,32.93
2022-07-31T11:31:42.481Z,33.17
2022-07-31T11:36:49.271Z,33.13
2022-07-31T11:41:54.493Z,33.16
2022-07-31T11:46:56.680Z,33.04
2022-07-31T11:52:04.089Z,32.49
2022-07-31T11:57:07.217Z,32.54
2022-07-31T12:02:11.589Z,32.87
2022-07-31T12:07:14.290Z,32.85
2022-07-31T12:12:19.267Z,32.70
2022-07-31T12:17:22.680Z,31.84
2022-07-31T12:22:25.655Z,31.04
2022-07-31T12:27:28.268Z,31.21
2022-07-31T12:32:30.343Z,30.98
2022-07-31T12:37:43.963Z,30.77
2022-07-31T12:42:46.454Z,30.82
2022-07-31T12:47:53.937Z,30.20
2022-07-31T12:53:00.851Z,30.34
2022-07-31T12:58:03.207Z,30.23
2022-07-31T13:03:05.883Z,28.74
2022-07-31T13:08:09.020Z,28.48
2022-07-31T13:13:11.170Z,28.14
2022-07-31T13:18:13.452Z,27.70
2022-07-31T13:23:15.348Z,27.83
2022-07-31T13:28:17.628Z,27.26
2022-07-31T13:33:19.722Z,27.39
2022-07-31T13:38:21.920Z,27.41
2022-07-31T13:43:24.057Z,27.54
2022-07-31T13:48:26.333Z,26.85
2022-07-31T13:53:28.333Z,27.08
2022-07-31T13:58:30.228Z,27.61
2022-07-31T14:03:32.351Z,27.51
2022-07-31T14:08:49.651Z,26.72
2022-07-31T14:13:53.178Z,26.58
2022-07-31T14:18:55.415Z,25.95
2022-07-31T14:23:57.589Z,25.58
2022-07-31T14:29:01.384Z,25.66
2022-07-31T14:34:05.215Z,25.62
2022-07-31T14:39:07.605Z,25.21
2022-07-31T14:44:09.784Z,25.18
2022-07-31T14:49:12.950Z,25.19
2022-07-31T14:54:15.093Z,25.14
2022-07-31T14:59:17.141Z,24.83
2022-07-31T15:04:19.172Z,24.63
2022-07-31T15:09:23.213Z,25.18
2022-07-31T15:14:25.132Z,24.80
2022-07-31T15:19:26.978Z,24.54
2022-07-31T15:24:30.066Z,24.94
2022-07-31T15:30:04.709Z,24.69
2022-07-31T15:34:54.984Z,24.93
2022-07-31T15:40:02.347Z,25.20
2022-07-31T15:45:09.845Z,25.38
2022-07-31T15:50:14.576Z,25.53
2022-07-31T15:55:17.612Z,25.37
2022-07-31T16:00:19.544Z,25.59
2022-07-31T16:05:36.648Z,25.68
2022-07-31T16:10:39.296Z,25.57
2022-07-31T16:15:41.674Z,25.45
2022-07-31T16:20:43.695Z,25.47
2022-07-31T16:25:45.881Z,25.56
2022-07-31T16:30:47.849Z,25.48
2022-07-31T16:35:49.849Z,26.07
2022-07-31T16:40:53.550Z,25.90
2022-07-31T16:45:56.273Z,26.09
2022-07-31T16:50:59.214Z,26.26
2022-07-31T16:56:02.004Z,26.44
2022-07-31T17:01:53.159Z,26.46
2022-07-31T17:06:36.057Z,26.74
2022-07-31T17:11:40.376Z,26.59
2022-07-31T17:16:47.040Z,26.93
2022-07-31T17:21:52.648Z,26.76
2022-07-31T17:26:55.370Z,26.80
2022-07-31T17:31:57.706Z,27.12
2022-07-31T17:36:59.637Z,27.26
2022-07-31T17:42:02.722Z,27.12
2022-07-31T17:47:06.123Z,27.10
2022-07-31T17:52:08.424Z,27.40
2022-07-31T17:57:10.528Z,27.48
2022-07-31T18:02:13.058Z,27.46
2022-07-31T18:07:18.134Z,27.79
2022-07-31T18:12:19.981Z,28.00
2022-07-31T18:17:22.451Z,27.97
2022-07-31T18:22:24.327Z,27.77
2022-07-31T18:27:26.433Z,27.76
2022-07-31T18:32:31.810Z,28.03
2022-07-31T18:37:34.055Z,28.05
2022-07-31T18:42:36.135Z,28.17
2022-07-31T18:47:38.430Z,28.35
2022-07-31T18:52:40.383Z,28.78
2022-07-31T18:57:42.469Z,28.82
2022-07-31T19:02:44.495Z,29.32
2022-07-31T19:07:46.488Z,29.28
2022-07-31T19:12:51.045Z,29.41
2022-07-31T19:17:58.351Z,29.39
2022-07-31T19:23:04.273Z,29.77
2022-07-31T19:28:07.056Z,29.63
2022-07-31T19:33:14.063Z,29.88
2022-07-31T19:38:21.606Z,29.86
2022-07-31T19:43:23.975Z,30.16
2022-07-31T19:48:25.948Z,30.42
2022-07-31T19:53:27.900Z,31.92
2022-07-31T19:58:29.725Z,32.41
2022-07-31T20:03:31.963Z,33.08
2022-07-31T20:08:34.239Z,33.87
2022-07-31T20:13:38.700Z,34.52
2022-07-31T20:18:40.755Z,35.09
2022-07-31T20:23:42.881Z,35.80
2022-07-31T20:28:44.816Z,35.78
2022-07-31T20:33:57.094Z,35.85
2022-07-31T20:38:59.920Z,36.25
2022-07-31T20:44:01.832Z,36.22
2022-07-31T20:49:04.064Z,36.31
2022-07-31T20:54:05.952Z,36.80
2022-07-31T20:59:07.774Z,36.73
2022-07-31T21:04:10.011Z,36.45
2022-07-31T21:09:11.829Z,36.62
2022-07-31T21:14:13.655Z,36.11
2022-07-31T21:19:15.496Z,36.10
2022-07-31T21:24:17.810Z,36.05
2022-07-31T21:29:19.938Z,35.57
2022-07-31T21:34:21.919Z,35.50
2022-07-31T21:39:25.883Z,35.88
2022-07-31T21:44:27.882Z,35.94
2022-07-31T21:49:34.731Z,35.93
2022-07-31T21:54:36.628Z,36.04
2022-07-31T21:59:38.439Z,36.61
2022-07-31T22:05:00.219Z,37.54
2022-07-31T22:10:03.444Z,37.81
2022-07-31T22:15:07.256Z,38.18
2022-07-31T22:20:10.104Z,38.87
2022-07-31T22:25:13.332Z,39.13
2022-07-31T22:30:15.736Z,38.78
2022-07-31T22:35:17.875Z,38.34
2022-07-31T22:40:21.921Z,38.33
2022-07-31T22:45:23.924Z,38.61
2022-07-31T22:50:26.044Z,39.06
2022-07-31T22:55:27.917Z,38.97
2022-07-31T23:00:29.762Z,38.93
2022-07-31T23:06:03.049Z,39.17
2022-07-31T23:10:53.545Z,39.00
2022-07-31T23:15:55.343Z,38.79
2022-07-31T23:20:57.164Z,38.97
2022-07-31T23:25:58.982Z,39.10
2022-07-31T23:31:00.804Z,39.06
2022-07-31T23:36:02.648Z,38.86
2022-07-31T23:41:04.636Z,39.24
2022-07-31T23:46:06.764Z,39.30
2022-07-31T23:51:08.558Z,39.30
2022-07-31T23:56:14.334Z,39.47
